Terminal Aerodrome Forecast
Issued by NWS

Home | Current Version | Previous Version | Text Only | Print | Product List | Glossary On
Versions: 1 2 3 4 5 6 7 8 9 10 11 12 13 14
000
FTUS46 KSEW 041308 AAA
TAFBLI
TAF AMD
KBLI 041308Z 0413/0512 00000KT P6SM FEW001 BKN080
      TEMPO 0413/0416 1/2SM FG BKN001 OVC080
     FM041600 00000KT P6SM FEW002 BKN090
     FM042100 02004KT P6SM SCT090
     FM050500 00000KT P6SM FEW100 SCT200=

USA.gov is the U.S. government's official web portal to all federal, state and local government web resources and services.